Franksville, Wisconsin
Current Conditions -  °F | °C
As of 12:53 AM on Monday 22 Dec 2014 (Local Time) from KRAC Reporting Station
Haze Haze  
Wind Chill: 25°   Ceiling: Unl
Heat Index: 34°   Visibility: 6mi
Dew Point: 28°   Wind: 14mph
Humidity: 79%   Direction: 170°S
Pressure: 30"   Gusts: NA
Location:  42.76°N, 87.91°W
Report Text: KRAC 220653Z AUTO 17012KT 6SM HZ CLR 01/M02 A3000 RMK AO2 SLP165 T00111022
Loading
Personal Weather Stations






























Interactive Weather Map New forecast layout! Learn more

10-Day Weather Forecast

Advertisements
Track Severe Weather on mobile